Block Island, Rhode Island
Current Conditions -  °F | °C
As of 3:55 AM on Saturday 25 Oct 2014 (Local Time) from KBID Reporting Station
Clear Clear  
Wind Chill: 52°   Ceiling: Unl
Heat Index: 52°   Visibility: 10mi
Dew Point: 39°   Wind: 12mph
Humidity: 62%   Direction: 340°NNW
Pressure: 29.78"   Gusts: 18mph
Location:  41.17°N, 71.58°W
Report Text: KBID 250755Z AUTO 34010G16KT 10SM CLR 11/04 A2978 RMK AO1
Loading
Personal Weather Stations






























Interactive Weather Map
Tropical Storm Tracking
New forecast layout! Learn more

10-Day Weather Forecast

Advertisements
Track Severe Weather on mobile